createdAt,value
2023-01-29T00:01:41.646Z,97629.81
2023-01-29T00:04:38.400Z,97632.09
2023-01-29T00:07:35.168Z,97634.72
2023-01-29T00:10:31.901Z,97622.50
2023-01-29T00:13:28.831Z,97623.13
2023-01-29T00:16:25.610Z,97611.34
2023-01-29T00:19:22.346Z,97608.13
2023-01-29T00:22:19.099Z,97600.56
2023-01-29T00:25:15.896Z,97604.22
2023-01-29T00:28:13.346Z,97606.25
2023-01-29T00:31:12.105Z,97591.53
2023-01-29T00:34:08.915Z,97586.50
2023-01-29T00:37:08.789Z,97589.28
2023-01-29T00:40:06.092Z,97585.13
2023-01-29T00:43:21.388Z,97575.69
2023-01-29T00:46:18.184Z,97591.31
2023-01-29T00:49:14.923Z,97587.38
2023-01-29T00:52:26.617Z,97579.66
2023-01-29T00:55:23.383Z,97575.66
2023-01-29T00:58:22.446Z,97561.22
2023-01-29T01:01:42.845Z,97577.72
2023-01-29T01:04:39.609Z,97578.28
2023-01-29T01:07:36.371Z,97589.44
2023-01-29T01:10:33.406Z,97579.69
2023-01-29T01:13:32.478Z,97593.59
2023-01-29T01:16:29.268Z,97578.69
2023-01-29T01:19:26.009Z,97578.59
2023-01-29T01:22:22.915Z,97578.69
2023-01-29T01:25:19.895Z,97585.78
2023-01-29T01:28:17.093Z,97577.78
2023-01-29T01:31:14.552Z,97570.63
2023-01-29T01:34:11.416Z,97577.66
2023-01-29T01:37:08.177Z,97568.19
2023-01-29T01:40:12.740Z,97565.03
2023-01-29T01:43:09.871Z,97561.97
2023-01-29T01:46:06.615Z,97553.75
2023-01-29T01:49:11.660Z,97565.81
2023-01-29T01:52:08.554Z,97555.91
2023-01-29T01:55:06.875Z,97552.72
2023-01-29T01:58:15.724Z,97550.22
2023-01-29T02:01:13.204Z,97547.75
2023-01-29T02:04:48.897Z,97546.47
2023-01-29T02:08:07.791Z,97542.00
2023-01-29T02:11:06.040Z,97535.91
2023-01-29T02:14:03.607Z,97529.94
2023-01-29T02:17:01.465Z,97541.44
2023-01-29T02:20:24.257Z,97536.53
2023-01-29T02:24:02.395Z,97530.19
2023-01-29T02:27:05.500Z,97527.94
2023-01-29T02:30:17.715Z,97526.59
2023-01-29T02:33:32.639Z,97537.72
2023-01-29T02:36:56.598Z,97546.41
2023-01-29T02:40:05.394Z,97556.03
2023-01-29T02:43:16.036Z,97556.03
2023-01-29T02:46:35.582Z,97555.34
2023-01-29T02:49:43.690Z,97572.00
2023-01-29T02:52:50.901Z,97567.56
2023-01-29T02:55:53.688Z,97559.09
2023-01-29T02:59:00.325Z,97561.06
2023-01-29T03:02:02.438Z,97565.69
2023-01-29T03:05:03.645Z,97548.41
2023-01-29T03:08:09.161Z,97543.06
2023-01-29T03:11:06.965Z,97544.03
2023-01-29T03:14:08.848Z,97559.31
2023-01-29T03:17:08.767Z,97577.75
2023-01-29T03:20:09.008Z,97568.91
2023-01-29T03:23:13.659Z,97566.06
2023-01-29T03:26:29.951Z,97581.47
2023-01-29T03:29:45.457Z,97585.03
2023-01-29T03:32:43.419Z,97579.06
2023-01-29T03:36:13.756Z,97578.19
2023-01-29T03:39:11.674Z,97585.00
2023-01-29T03:42:27.238Z,97586.03
2023-01-29T03:45:34.603Z,97593.75
2023-01-29T03:48:43.637Z,97580.88
2023-01-29T03:51:55.309Z,97572.94
2023-01-29T03:54:59.942Z,97567.09
2023-01-29T03:58:05.749Z,97563.00
2023-01-29T04:01:23.893Z,97566.09
2023-01-29T04:04:37.934Z,97560.63
2023-01-29T04:07:36.644Z,97559.63
2023-01-29T04:10:36.108Z,97557.34
2023-01-29T04:13:34.035Z,97553.63
2023-01-29T04:16:39.056Z,97554.91
2023-01-29T04:19:36.096Z,97547.69
2023-01-29T04:22:35.791Z,97539.44
2023-01-29T04:25:42.115Z,97538.97
2023-01-29T04:29:09.842Z,97543.75
2023-01-29T04:32:21.700Z,97548.97
2023-01-29T04:35:37.275Z,97547.41
2023-01-29T04:38:33.984Z,97530.88
2023-01-29T04:41:50.353Z,97520.56
2023-01-29T04:45:03.581Z,97525.50
2023-01-29T04:48:25.851Z,97523.47
2023-01-29T04:51:33.931Z,97536.06
2023-01-29T04:54:53.997Z,97532.53
2023-01-29T04:58:07.944Z,97537.03
2023-01-29T05:01:07.212Z,97530.56
2023-01-29T05:04:09.445Z,97536.66
2023-01-29T05:07:10.060Z,97532.59
2023-01-29T05:10:09.584Z,97514.91
2023-01-29T05:13:09.332Z,97522.84
2023-01-29T05:16:22.498Z,97519.91
2023-01-29T05:19:19.484Z,97523.19
2023-01-29T05:22:18.261Z,97514.69
2023-01-29T05:25:23.801Z,97519.59
2023-01-29T05:28:20.620Z,97517.72
2023-01-29T05:31:17.460Z,97515.09
2023-01-29T05:34:14.384Z,97516.84
2023-01-29T05:37:11.190Z,97514.22
2023-01-29T05:40:09.646Z,97521.88
2023-01-29T05:43:14.234Z,97511.16
2023-01-29T05:46:10.996Z,97513.31
2023-01-29T05:49:07.788Z,97521.06
2023-01-29T05:52:04.877Z,97513.63
2023-01-29T05:55:01.656Z,97522.19
2023-01-29T05:57:58.508Z,97525.25
2023-01-29T06:00:55.278Z,97523.03
2023-01-29T06:03:52.135Z,97524.28
2023-01-29T06:06:49.038Z,97506.69
2023-01-29T06:09:45.896Z,97501.03
2023-01-29T06:12:43.714Z,97503.16
2023-01-29T06:15:40.991Z,97499.91
2023-01-29T06:18:38.361Z,97501.41
2023-01-29T06:21:35.181Z,97502.84
2023-01-29T06:24:32.859Z,97499.09
2023-01-29T06:27:29.685Z,97488.06
2023-01-29T06:30:28.213Z,97497.22
2023-01-29T06:33:25.450Z,97501.31
2023-01-29T06:36:22.256Z,97513.81
2023-01-29T06:39:19.023Z,97515.63
2023-01-29T06:42:15.874Z,97506.56
2023-01-29T06:45:12.786Z,97516.00
2023-01-29T06:48:09.551Z,97511.69
2023-01-29T06:51:07.955Z,97507.78
2023-01-29T06:54:04.816Z,97507.56
2023-01-29T06:57:01.624Z,97515.28
2023-01-29T06:59:58.444Z,97519.31
2023-01-29T07:02:55.207Z,97521.63
2023-01-29T07:05:52.896Z,97512.25
2023-01-29T07:08:49.742Z,97521.06
2023-01-29T07:11:46.551Z,97524.94
2023-01-29T07:14:43.297Z,97517.72
2023-01-29T07:17:40.070Z,97523.16
2023-01-29T07:20:36.842Z,97530.19
2023-01-29T07:23:34.670Z,97537.72
2023-01-29T07:26:31.466Z,97544.31
2023-01-29T07:29:28.238Z,97525.69
2023-01-29T07:32:24.993Z,97534.22
2023-01-29T07:35:21.920Z,97530.00
2023-01-29T07:38:19.050Z,97536.34
2023-01-29T07:41:15.802Z,97536.75
2023-01-29T07:44:12.577Z,97541.25
2023-01-29T07:47:09.347Z,97548.56
2023-01-29T07:50:06.651Z,97559.56
2023-01-29T07:53:04.251Z,97562.75
2023-01-29T07:56:01.063Z,97578.44
2023-01-29T07:58:57.831Z,97577.53
2023-01-29T08:01:54.676Z,97573.47
2023-01-29T08:04:51.443Z,97572.06
2023-01-29T08:08:05.681Z,97577.34
2023-01-29T08:11:05.548Z,97568.56
2023-01-29T08:14:02.338Z,97583.13
2023-01-29T08:16:59.164Z,97584.19
2023-01-29T08:19:56.026Z,97574.81
2023-01-29T08:23:00.655Z,97585.56
2023-01-29T08:25:57.579Z,97595.81
2023-01-29T08:28:54.385Z,97568.63
2023-01-29T08:31:51.327Z,97563.00
2023-01-29T08:34:48.599Z,97553.97
2023-01-29T08:37:52.156Z,97541.28
2023-01-29T08:40:49.947Z,97539.22
2023-01-29T08:43:47.197Z,97542.50
2023-01-29T08:46:44.252Z,97539.09
2023-01-29T08:49:41.177Z,97540.97
2023-01-29T08:52:37.939Z,97525.88
2023-01-29T08:55:41.382Z,97541.19
2023-01-29T08:58:38.198Z,97554.53
2023-01-29T09:01:35.240Z,97551.25
2023-01-29T09:04:31.996Z,97543.34
2023-01-29T09:07:29.705Z,97538.22
2023-01-29T09:10:26.894Z,97548.38
2023-01-29T09:13:23.701Z,97551.84
2023-01-29T09:16:20.522Z,97568.06
2023-01-29T09:19:17.681Z,97587.66
2023-01-29T09:22:14.465Z,97614.09
2023-01-29T09:25:11.533Z,97621.47
2023-01-29T09:28:08.333Z,97637.88
2023-01-29T09:31:05.206Z,97629.63
2023-01-29T09:34:02.024Z,97607.69
2023-01-29T09:36:58.905Z,97602.16
2023-01-29T09:39:55.661Z,97576.09
2023-01-29T09:42:58.127Z,97581.94
2023-01-29T09:46:15.316Z,97577.66
2023-01-29T09:49:25.847Z,97571.72
2023-01-29T09:52:25.151Z,97566.03
2023-01-29T09:55:37.583Z,97551.63
2023-01-29T09:58:39.878Z,97564.22
2023-01-29T10:01:51.876Z,97562.03
2023-01-29T10:04:53.795Z,97573.84
2023-01-29T10:08:21.746Z,97577.66
2023-01-29T10:11:43.494Z,97565.28
2023-01-29T10:14:55.534Z,97560.44
2023-01-29T10:18:18.264Z,97559.72
2023-01-29T10:21:38.063Z,97570.69
2023-01-29T10:24:47.057Z,97544.00
2023-01-29T10:27:50.230Z,97522.38
2023-01-29T10:30:54.757Z,97511.94
2023-01-29T10:34:03.029Z,97494.75
2023-01-29T10:37:01.856Z,97496.38
2023-01-29T10:40:00.091Z,97500.84
2023-01-29T10:43:32.935Z,97493.59
2023-01-29T10:46:58.883Z,97481.91
2023-01-29T10:50:14.634Z,97478.44
2023-01-29T10:53:36.376Z,97469.34
2023-01-29T10:56:51.614Z,97471.75
2023-01-29T11:00:13.505Z,97465.03
2023-01-29T11:03:27.594Z,97453.47
2023-01-29T11:06:31.654Z,97447.50
2023-01-29T11:09:32.909Z,97458.44
2023-01-29T11:12:32.116Z,97446.06
2023-01-29T11:15:33.336Z,97458.88
2023-01-29T11:18:48.025Z,97433.22
2023-01-29T11:21:59.295Z,97427.97
2023-01-29T11:25:17.861Z,97421.75
2023-01-29T11:28:34.596Z,97417.69
2023-01-29T11:31:38.580Z,97429.63
2023-01-29T11:34:55.692Z,97417.09
2023-01-29T11:37:52.951Z,97415.47
2023-01-29T11:40:50.135Z,97412.47
2023-01-29T11:43:46.897Z,97407.41
2023-01-29T11:46:43.739Z,97399.91
2023-01-29T11:49:45.608Z,97386.22
2023-01-29T11:52:43.478Z,97375.09
2023-01-29T11:55:50.819Z,97374.28
2023-01-29T11:58:49.151Z,97374.25
2023-01-29T12:01:45.965Z,97377.72
2023-01-29T12:04:42.759Z,97369.25
2023-01-29T12:07:42.429Z,97365.00
2023-01-29T12:10:41.237Z,97364.84
2023-01-29T12:13:43.237Z,97359.78
2023-01-29T12:16:59.492Z,97349.69
2023-01-29T12:20:02.083Z,97336.47
2023-01-29T12:23:06.625Z,97329.69
2023-01-29T12:26:26.618Z,97327.06
2023-01-29T12:29:49.556Z,97318.75
2023-01-29T12:33:00.937Z,97328.31
2023-01-29T12:36:26.487Z,97328.06
2023-01-29T12:39:23.425Z,97328.44
2023-01-29T12:42:22.701Z,97334.31
2023-01-29T12:45:24.945Z,97328.66
2023-01-29T12:48:30.109Z,97320.59
2023-01-29T12:51:34.700Z,97307.06
2023-01-29T12:54:39.291Z,97300.44
2023-01-29T12:58:05.117Z,97299.63
2023-01-29T13:01:44.317Z,97292.72
2023-01-29T13:04:48.537Z,97295.28
2023-01-29T13:07:53.323Z,97290.75
2023-01-29T13:10:52.772Z,97282.28
2023-01-29T13:14:13.417Z,97277.13
2023-01-29T13:17:21.414Z,97276.19
2023-01-29T13:20:22.995Z,97272.25
2023-01-29T13:23:37.065Z,97262.09
2023-01-29T13:26:34.514Z,97267.72
2023-01-29T13:29:31.780Z,97272.38
2023-01-29T13:32:34.340Z,97263.69
2023-01-29T13:35:31.191Z,97268.13
2023-01-29T13:38:33.268Z,97266.69
2023-01-29T13:41:42.453Z,97263.69
2023-01-29T13:44:39.723Z,97275.78
2023-01-29T13:47:39.180Z,97264.50
2023-01-29T13:50:41.164Z,97270.34
2023-01-29T13:53:40.831Z,97269.34
2023-01-29T13:56:40.433Z,97261.47
2023-01-29T13:59:53.082Z,97260.84
2023-01-29T14:02:55.802Z,97258.81
2023-01-29T14:05:55.254Z,97253.41
2023-01-29T14:08:52.035Z,97250.56
2023-01-29T14:11:48.881Z,97251.59
2023-01-29T14:14:48.511Z,97255.63
2023-01-29T14:18:03.422Z,97237.88
2023-01-29T14:21:03.051Z,97237.66
2023-01-29T14:24:18.376Z,97236.47
2023-01-29T14:27:25.281Z,97228.03
2023-01-29T14:30:22.528Z,97222.56
2023-01-29T14:33:35.038Z,97231.88
2023-01-29T14:36:42.496Z,97239.31
2023-01-29T14:39:50.749Z,97219.75
2023-01-29T14:43:05.396Z,97217.16
2023-01-29T14:46:34.256Z,97217.75
2023-01-29T14:50:08.754Z,97226.03
2023-01-29T14:53:21.197Z,97219.94
2023-01-29T14:56:28.539Z,97211.53
2023-01-29T14:59:38.708Z,97212.06
2023-01-29T15:02:41.602Z,97218.34
2023-01-29T15:05:39.287Z,97224.00
2023-01-29T15:08:44.078Z,97213.09
2023-01-29T15:11:58.119Z,97215.53
2023-01-29T15:15:24.041Z,97219.94
2023-01-29T15:18:39.746Z,97208.69
2023-01-29T15:21:36.620Z,97212.34
2023-01-29T15:24:33.533Z,97203.28
2023-01-29T15:27:30.963Z,97196.38
2023-01-29T15:30:32.867Z,97186.94
2023-01-29T15:33:31.088Z,97186.31
2023-01-29T15:36:30.603Z,97202.06
2023-01-29T15:39:28.403Z,97196.59
2023-01-29T15:42:27.335Z,97189.34
2023-01-29T15:45:33.909Z,97183.09
2023-01-29T15:48:37.926Z,97188.13
2023-01-29T15:51:35.333Z,97192.59
2023-01-29T15:54:33.822Z,97189.97
2023-01-29T15:57:40.463Z,97188.97
2023-01-29T16:00:37.238Z,97187.72
2023-01-29T16:03:34.667Z,97181.50
2023-01-29T16:06:37.833Z,97182.09
2023-01-29T16:09:34.623Z,97190.78
2023-01-29T16:12:33.239Z,97193.41
2023-01-29T16:15:35.903Z,97191.97
2023-01-29T16:18:36.306Z,97188.16
2023-01-29T16:21:36.716Z,97200.44
2023-01-29T16:24:36.241Z,97184.31
2023-01-29T16:27:33.765Z,97199.44
2023-01-29T16:30:30.541Z,97187.53
2023-01-29T16:33:36.052Z,97182.91
2023-01-29T16:36:33.440Z,97182.09
2023-01-29T16:39:38.095Z,97179.88
2023-01-29T16:42:35.972Z,97187.34
2023-01-29T16:45:32.729Z,97186.16
2023-01-29T16:48:34.658Z,97199.44
2023-01-29T16:51:39.329Z,97200.03
2023-01-29T16:54:41.714Z,97199.03
2023-01-29T16:57:39.276Z,97198.81
2023-01-29T17:00:36.348Z,97193.78
2023-01-29T17:03:34.372Z,97202.25
2023-01-29T17:06:32.329Z,97202.25
2023-01-29T17:09:37.482Z,97197.41
2023-01-29T17:12:36.728Z,97205.06
2023-01-29T17:15:35.472Z,97208.09
2023-01-29T17:18:32.320Z,97213.75
2023-01-29T17:21:30.357Z,97205.47
2023-01-29T17:24:27.436Z,97207.09
2023-01-29T17:27:24.223Z,97203.88
2023-01-29T17:30:23.595Z,97199.03
2023-01-29T17:33:25.838Z,97197.63
2023-01-29T17:36:22.689Z,97202.47
2023-01-29T17:39:22.245Z,97204.47
2023-01-29T17:42:19.074Z,97197.41
2023-01-29T17:45:16.172Z,97211.72
2023-01-29T17:48:25.517Z,97204.28
2023-01-29T17:51:24.825Z,97206.06
2023-01-29T17:54:22.744Z,97209.69
2023-01-29T17:57:19.543Z,97208.72
2023-01-29T18:00:21.256Z,97204.28
2023-01-29T18:03:18.027Z,97198.81
2023-01-29T18:06:27.130Z,97188.72
2023-01-29T18:09:24.657Z,97181.50
2023-01-29T18:12:21.427Z,97182.72
2023-01-29T18:15:18.492Z,97176.47
2023-01-29T18:18:18.913Z,97169.00
2023-01-29T18:21:15.724Z,97166.59
2023-01-29T18:24:12.503Z,97159.53
2023-01-29T18:27:09.351Z,97164.78
2023-01-29T18:30:06.701Z,97151.06
2023-01-29T18:33:03.471Z,97144.22
2023-01-29T18:36:00.739Z,97151.66
2023-01-29T18:38:58.077Z,97146.44
2023-01-29T18:41:54.969Z,97139.38
2023-01-29T18:44:51.748Z,97144.41
2023-01-29T18:47:49.286Z,97130.50
2023-01-29T18:50:46.014Z,97127.06
2023-01-29T18:53:42.800Z,97120.66
2023-01-29T18:57:13.205Z,97124.03
2023-01-29T18:59:56.331Z,97110.69
2023-01-29T19:02:53.184Z,97116.94
2023-01-29T19:05:50.189Z,97110.47
2023-01-29T19:08:47.431Z,97103.06
2023-01-29T19:11:44.207Z,97103.44
2023-01-29T19:14:40.979Z,97098.25
2023-01-29T19:17:38.441Z,97097.78
2023-01-29T19:20:35.214Z,97094.59
2023-01-29T19:23:32.005Z,97097.84
2023-01-29T19:26:28.913Z,97097.59
2023-01-29T19:29:25.702Z,97093.59
2023-01-29T19:32:22.711Z,97090.94
2023-01-29T19:35:19.837Z,97098.72
2023-01-29T19:38:21.332Z,97079.66
2023-01-29T19:41:18.332Z,97087.91
2023-01-29T19:44:15.103Z,97087.06
2023-01-29T19:47:11.855Z,97086.56
2023-01-29T19:50:10.015Z,97091.47
2023-01-29T19:53:06.787Z,97086.38
2023-01-29T19:56:05.757Z,97083.16
2023-01-29T19:59:02.548Z,97091.59
2023-01-29T20:01:59.334Z,97086.06
2023-01-29T20:04:56.154Z,97087.22
2023-01-29T20:07:53.029Z,97088.66
2023-01-29T20:10:49.804Z,97079.53
2023-01-29T20:13:47.808Z,97089.31
2023-01-29T20:16:44.563Z,97094.34
2023-01-29T20:19:41.838Z,97095.34
2023-01-29T20:22:38.624Z,97083.22
2023-01-29T20:25:35.694Z,97083.38
2023-01-29T20:28:32.743Z,97087.38
2023-01-29T20:31:29.585Z,97086.13
2023-01-29T20:34:26.815Z,97076.16
2023-01-29T20:37:23.837Z,97088.09
2023-01-29T20:40:20.624Z,97074.59
2023-01-29T20:43:17.462Z,97078.41
2023-01-29T20:46:14.334Z,97089.59
2023-01-29T20:49:12.319Z,97106.00
2023-01-29T20:52:10.736Z,97092.38
2023-01-29T20:55:09.822Z,97097.31
2023-01-29T20:58:06.960Z,97104.88
2023-01-29T21:01:09.280Z,97101.00
2023-01-29T21:04:06.072Z,97101.00
2023-01-29T21:07:02.833Z,97094.81
2023-01-29T21:09:59.599Z,97080.75
2023-01-29T21:12:56.392Z,97076.13
2023-01-29T21:15:53.380Z,97069.28
2023-01-29T21:18:50.147Z,97044.22
2023-01-29T21:21:46.909Z,97021.31
2023-01-29T21:24:43.874Z,97010.59
2023-01-29T21:27:40.674Z,97023.31
2023-01-29T21:30:37.463Z,97004.81
2023-01-29T21:33:35.109Z,96988.75
2023-01-29T21:36:33.245Z,96988.75
2023-01-29T21:39:30.022Z,96996.81
2023-01-29T21:42:44.956Z,96986.72
2023-01-29T21:45:42.380Z,96982.91
2023-01-29T21:48:39.929Z,96969.03
2023-01-29T21:51:36.712Z,96960.38
2023-01-29T21:54:35.503Z,96945.72
2023-01-29T21:57:32.550Z,96936.03
2023-01-29T22:00:29.334Z,96941.09
2023-01-29T22:03:26.498Z,96934.03
2023-01-29T22:06:23.731Z,96920.34
2023-01-29T22:09:21.299Z,96921.75
2023-01-29T22:12:18.208Z,96919.94
2023-01-29T22:15:15.271Z,96899.41
2023-01-29T22:18:12.053Z,96914.31
2023-01-29T22:21:08.841Z,96914.31
2023-01-29T22:24:06.255Z,96899.59
2023-01-29T22:27:03.095Z,96885.53
2023-01-29T22:30:00.175Z,96884.53
2023-01-29T22:32:57.012Z,96895.59
2023-01-29T22:35:54.731Z,96889.34
2023-01-29T22:38:51.666Z,96871.03
2023-01-29T22:41:48.702Z,96869.84
2023-01-29T22:44:45.627Z,96869.84
2023-01-29T22:47:42.511Z,96859.97
2023-01-29T22:50:39.846Z,96850.72
2023-01-29T22:54:02.677Z,96848.69
2023-01-29T22:56:59.425Z,96845.47
2023-01-29T22:59:56.272Z,96852.09
2023-01-29T23:02:53.057Z,96845.28
2023-01-29T23:05:49.816Z,96854.28
2023-01-29T23:08:46.574Z,96835.41
2023-01-29T23:11:43.331Z,96834.97
2023-01-29T23:14:40.116Z,96829.53
2023-01-29T23:17:36.941Z,96817.66
2023-01-29T23:20:33.708Z,96807.22
2023-01-29T23:23:32.325Z,96807.63
2023-01-29T23:26:47.807Z,96800.16
2023-01-29T23:29:48.460Z,96800.50
2023-01-29T23:32:45.207Z,96809.59
2023-01-29T23:35:41.970Z,96810.84
2023-01-29T23:38:38.845Z,96801.97
2023-01-29T23:41:35.920Z,96794.13
2023-01-29T23:44:32.723Z,96781.03
2023-01-29T23:47:29.473Z,96792.50
2023-01-29T23:50:26.521Z,96788.06
2023-01-29T23:53:23.407Z,96792.88
2023-01-29T23:56:20.406Z,96798.47
2023-01-29T23:59:17.749Z,96790.81
